Time;durP1;ratioP1;P1;durP2;ratioP2;P2;SDS_P1;SDS_P2;PMS_P1;PMS_P2;Temp;Humidity;BMP_temperature;BMP_pressure;BME280_temperature;BME280_humidity;BME280_pressure;Samples;Min_cycle;Max_cycle;Signal;HPM_P1;HPM_P2
2023/08/30 00:02:11;;;;;;;6.97;4.05;;;13.60;97.30;;;;;;4973539;28;20046;-75
2023/08/30 00:04:38;;;;;;;7.72;3.97;;;13.50;97.40;;;;;;4994219;28;20050;-75
2023/08/30 00:07:05;;;;;;;7.45;4.13;;;13.40;97.60;;;;;;4992461;28;20140;-74
2023/08/30 00:09:32;;;;;;;14.05;4.05;;;13.40;97.80;;;;;;4982155;28;20049;-74
2023/08/30 00:11:59;;;;;;;7.45;4.07;;;13.40;97.80;;;;;;5008001;28;20144;-74
2023/08/30 00:14:25;;;;;;;6.35;3.38;;;13.30;98.00;;;;;;4993460;28;20062;-76
2023/08/30 00:16:52;;;;;;;11.95;4.93;;;13.30;98.30;;;;;;4974593;28;20196;-79
2023/08/30 00:19:19;;;;;;;11.80;4.55;;;13.20;98.40;;;;;;4994584;28;20057;-80
2023/08/30 00:21:46;;;;;;;13.38;4.15;;;13.20;98.50;;;;;;4996930;28;20130;-80
2023/08/30 00:24:13;;;;;;;7.93;4.57;;;13.20;98.70;;;;;;4991484;28;20137;-80
2023/08/30 00:26:43;;;;;;;10.90;4.55;;;13.10;99.00;;;;;;4984821;28;20047;-81
2023/08/30 00:29:11;;;;;;;8.93;4.47;;;13.10;99.20;;;;;;4986354;28;20157;-79
2023/08/30 00:31:38;;;;;;;15.55;4.97;;;13.00;99.50;;;;;;4981524;28;20112;-80
2023/08/30 00:34:05;;;;;;;9.43;4.63;;;13.00;99.60;;;;;;4990946;28;20058;-81
2023/08/30 00:36:32;;;;;;;12.48;5.22;;;12.90;99.40;;;;;;4992523;28;20120;-79
2023/08/30 00:39:02;;;;;;;12.93;6.18;;;12.90;99.30;;;;;;4980927;28;20069;-79
2023/08/30 00:41:29;;;;;;;14.90;6.10;;;12.80;99.80;;;;;;4981119;28;20057;-74
2023/08/30 00:43:56;;;;;;;16.38;5.80;;;12.80;99.80;;;;;;4996006;28;20742;-74
2023/08/30 00:46:24;;;;;;;13.18;5.55;;;12.70;99.90;;;;;;5002229;28;20128;-74
2023/08/30 00:48:51;;;;;;;10.35;5.15;;;12.60;100.00;;;;;;4997659;28;20045;-74
2023/08/30 00:51:18;;;;;;;9.70;4.47;;;12.60;100.00;;;;;;4998214;28;20054;-74
2023/08/30 00:53:45;;;;;;;8.30;4.38;;;12.60;100.00;;;;;;4980314;28;20069;-74
2023/08/30 00:56:12;;;;;;;15.32;5.65;;;12.50;100.00;;;;;;4981523;28;20407;-79
2023/08/30 00:58:39;;;;;;;14.68;6.18;;;12.50;100.00;;;;;;4985354;28;20151;-79
2023/08/30 01:01:08;;;;;;;17.33;5.97;;;12.40;100.00;;;;;;5002267;28;20202;-79
2023/08/30 01:03:35;;;;;;;17.40;6.28;;;12.30;100.00;;;;;;4987200;28;20046;-79
2023/08/30 01:06:02;;;;;;;16.48;7.50;;;12.20;100.00;;;;;;4998797;28;20061;-79
2023/08/30 01:08:31;;;;;;;23.00;7.65;;;12.20;100.00;;;;;;4975995;28;20129;-79
2023/08/30 01:11:29;;;;;;;23.63;7.90;;;12.20;100.00;;;;;;4984443;28;20050;-79
2023/08/30 01:14:08;;;;;;;16.15;7.18;;;12.10;100.00;;;;;;4980162;28;20100;-79
2023/08/30 01:16:36;;;;;;;21.35;8.27;;;12.10;100.00;;;;;;4978330;28;20050;-80
2023/08/30 01:19:50;;;;;;;21.95;8.13;;;12.10;100.00;;;;;;4993636;28;20108;-79
2023/08/30 01:22:38;;;;;;;22.65;8.07;;;12.10;100.00;;;;;;4958241;28;20049;-80
2023/08/30 01:25:11;;;;;;;16.52;7.50;;;12.00;100.00;;;;;;4988417;28;20054;-74
2023/08/30 01:27:39;;;;;;;20.38;8.18;;;12.10;100.00;;;;;;5001319;28;20077;-74
2023/08/30 01:30:08;;;;;;;17.58;8.05;;;12.20;100.00;;;;;;4994982;28;20480;-74
2023/08/30 01:32:37;;;;;;;22.23;8.23;;;12.20;100.00;;;;;;4993978;28;20148;-74
2023/08/30 01:35:06;;;;;;;17.70;7.85;;;12.20;100.00;;;;;;4992133;28;20050;-75
2023/08/30 01:37:34;;;;;;;18.65;8.75;;;12.20;100.00;;;;;;4981429;28;21081;-74
2023/08/30 01:40:04;;;;;;;25.63;8.90;;;12.20;100.00;;;;;;4979444;28;20140;-74
2023/08/30 01:42:32;;;;;;;18.88;7.45;;;12.30;100.00;;;;;;4992498;28;20081;-74
2023/08/30 01:45:00;;;;;;;21.85;8.77;;;12.30;100.00;;;;;;5003645;28;20964;-74
2023/08/30 01:47:28;;;;;;;33.90;8.75;;;12.30;100.00;;;;;;4997297;28;20054;-75
2023/08/30 01:49:57;;;;;;;19.42;8.57;;;12.30;100.00;;;;;;5000152;28;20128;-75
2023/08/30 01:52:24;;;;;;;24.77;8.50;;;12.30;100.00;;;;;;4977732;28;20054;-74
2023/08/30 01:54:53;;;;;;;22.40;8.93;;;12.30;100.00;;;;;;4990626;28;20454;-74
2023/08/30 01:57:20;;;;;;;20.40;8.63;;;12.30;100.00;;;;;;4996205;28;20046;-74
2023/08/30 01:59:47;;;;;;;23.38;8.80;;;12.40;100.00;;;;;;4990978;28;20176;-74
2023/08/30 02:02:13;;;;;;;22.90;8.70;;;12.40;100.00;;;;;;4988139;28;20042;-74
2023/08/30 02:04:40;;;;;;;21.08;9.15;;;12.30;100.00;;;;;;4999910;28;20045;-74
2023/08/30 02:07:39;;;;;;;16.35;8.40;;;12.40;100.00;;;;;;4993705;28;20100;-75
2023/08/30 02:10:11;;;;;;;23.25;8.77;;;12.30;100.00;;;;;;4995118;28;20512;-74
2023/08/30 02:12:48;;;;;;;20.63;7.93;;;12.30;100.00;;;;;;4998144;28;20069;-74
2023/08/30 02:15:17;;;;;;;19.52;8.48;;;12.30;100.00;;;;;;4983172;28;20054;-75
2023/08/30 02:17:45;;;;;;;19.70;8.18;;;12.30;100.00;;;;;;4987414;28;20145;-74
2023/08/30 02:20:12;;;;;;;26.50;8.45;;;12.30;100.00;;;;;;4992653;28;20112;-74
2023/08/30 02:22:39;;;;;;;21.35;9.18;;;12.20;100.00;;;;;;4988777;28;20091;-74
2023/08/30 02:25:07;;;;;;;21.67;9.43;;;12.20;100.00;;;;;;5012998;28;20554;-74
2023/08/30 02:28:18;;;;;;;16.45;8.18;;;12.20;100.00;;;;;;5000770;28;20108;-75
2023/08/30 02:30:45;;;;;;;21.50;8.63;;;12.20;100.00;;;;;;5004920;28;20045;-74
2023/08/30 02:33:12;;;;;;;22.08;8.88;;;12.20;100.00;;;;;;5002400;28;20749;-74
2023/08/30 02:35:38;;;;;;;20.98;8.68;;;12.20;100.00;;;;;;5004389;28;20494;-75
2023/08/30 02:38:07;;;;;;;20.63;8.93;;;12.20;100.00;;;;;;5017362;28;20105;-79
2023/08/30 02:40:35;;;;;;;22.80;9.07;;;12.20;100.00;;;;;;4976292;28;20042;-80
2023/08/30 02:43:04;;;;;;;19.40;9.15;;;12.30;100.00;;;;;;5015693;28;20374;-79
2023/08/30 02:45:31;;;;;;;23.70;10.02;;;12.30;100.00;;;;;;4986838;28;20160;-80
2023/08/30 02:47:58;;;;;;;23.40;9.98;;;12.30;100.00;;;;;;5010577;28;20042;-80
2023/08/30 02:50:25;;;;;;;23.38;9.85;;;12.30;100.00;;;;;;4998784;28;20125;-79
2023/08/30 02:52:52;;;;;;;23.10;8.88;;;12.30;100.00;;;;;;4983808;28;20413;-80
2023/08/30 02:55:19;;;;;;;26.00;9.63;;;12.30;100.00;;;;;;4999682;28;20053;-80
2023/08/30 02:57:46;;;;;;;16.25;8.07;;;12.30;100.00;;;;;;4983108;28;20145;-81
2023/08/30 03:00:14;;;;;;;25.73;9.32;;;12.30;100.00;;;;;;5000373;28;20049;-80
2023/08/30 03:02:41;;;;;;;24.98;8.73;;;12.30;100.00;;;;;;4990112;28;20049;-74
2023/08/30 03:05:08;;;;;;;24.02;8.32;;;12.30;100.00;;;;;;5008930;28;20046;-75
2023/08/30 03:07:35;;;;;;;21.73;9.00;;;12.30;100.00;;;;;;4998555;28;20121;-75
2023/08/30 03:10:03;;;;;;;22.20;9.68;;;12.30;100.00;;;;;;4994985;28;20100;-74
2023/08/30 03:12:30;;;;;;;27.50;9.75;;;12.30;100.00;;;;;;5000777;28;20399;-75
2023/08/30 03:14:57;;;;;;;20.17;9.40;;;12.30;100.00;;;;;;4993379;28;20751;-75
2023/08/30 03:17:24;;;;;;;24.92;9.63;;;12.30;100.00;;;;;;4973499;28;20077;-74
2023/08/30 03:19:53;;;;;;;20.05;8.90;;;12.30;100.00;;;;;;5000938;28;20697;-75
2023/08/30 03:22:20;;;;;;;25.60;10.00;;;12.30;100.00;;;;;;4983994;28;20050;-75
2023/08/30 03:24:47;;;;;;;18.95;9.60;;;12.30;100.00;;;;;;4994603;28;20096;-74
2023/08/30 03:27:13;;;;;;;26.35;10.48;;;12.40;100.00;;;;;;4996981;28;20128;-75
2023/08/30 03:29:40;;;;;;;29.95;9.77;;;12.30;100.00;;;;;;4994207;28;20073;-75
2023/08/30 03:32:07;;;;;;;21.23;9.70;;;12.40;100.00;;;;;;4977376;28;20058;-75
2023/08/30 03:34:34;;;;;;;20.60;9.50;;;12.40;100.00;;;;;;4972827;28;20056;-75
2023/08/30 03:37:01;;;;;;;19.55;9.30;;;12.40;100.00;;;;;;4992286;28;20172;-75
2023/08/30 03:39:28;;;;;;;19.20;8.85;;;12.40;100.00;;;;;;4995067;28;20697;-75
2023/08/30 03:41:54;;;;;;;25.00;10.25;;;12.40;100.00;;;;;;4991871;28;20050;-74
2023/08/30 03:44:22;;;;;;;23.73;9.30;;;12.40;100.00;;;;;;4973932;28;20475;-75
2023/08/30 03:46:49;;;;;;;32.28;10.85;;;12.40;100.00;;;;;;4995408;28;20052;-75
2023/08/30 03:49:16;;;;;;;28.08;9.73;;;12.40;100.00;;;;;;4999751;28;20499;-74
2023/08/30 03:51:43;;;;;;;20.58;8.35;;;12.40;100.00;;;;;;4980441;28;20078;-82
2023/08/30 03:54:13;;;;;;;21.73;9.18;;;12.30;100.00;;;;;;4999037;28;20058;-80
2023/08/30 03:56:40;;;;;;;19.90;9.20;;;12.30;100.00;;;;;;5002272;28;20054;-80
2023/08/30 03:59:07;;;;;;;24.02;8.43;;;12.30;100.00;;;;;;5003212;28;20551;-80
2023/08/30 04:01:34;;;;;;;21.58;8.82;;;12.30;100.00;;;;;;4998344;28;20498;-80
2023/08/30 04:04:01;;;;;;;24.33;9.52;;;12.20;100.00;;;;;;4983887;28;20056;-80
2023/08/30 04:06:28;;;;;;;25.15;8.35;;;12.10;100.00;;;;;;4986265;28;20133;-80
2023/08/30 04:08:58;;;;;;;20.85;8.75;;;12.10;100.00;;;;;;4974003;28;20050;-80
2023/08/30 04:11:26;;;;;;;17.80;8.68;;;12.10;100.00;;;;;;4988394;28;20089;-80
2023/08/30 04:13:53;;;;;;;22.77;8.68;;;12.10;100.00;;;;;;4970397;28;20093;-80
2023/08/30 04:16:20;;;;;;;18.58;8.52;;;12.10;100.00;;;;;;4975570;28;20153;-80
2023/08/30 04:18:47;;;;;;;24.20;9.13;;;12.10;100.00;;;;;;4984532;28;20042;-80
2023/08/30 04:21:16;;;;;;;23.77;9.90;;;12.10;100.00;;;;;;5005218;28;20046;-80
2023/08/30 04:23:43;;;;;;;23.20;9.95;;;12.10;100.00;;;;;;4990566;28;20133;-75
2023/08/30 04:26:10;;;;;;;27.05;10.38;;;12.10;100.00;;;;;;4999201;28;20833;-75
2023/08/30 04:28:37;;;;;;;19.10;8.88;;;12.10;100.00;;;;;;4992776;28;20053;-74
2023/08/30 04:31:04;;;;;;;26.35;9.93;;;12.20;100.00;;;;;;4991852;28;20073;-75
2023/08/30 04:33:31;;;;;;;32.42;9.57;;;12.20;100.00;;;;;;4972748;28;20054;-80
2023/08/30 04:36:00;;;;;;;20.85;8.65;;;12.20;100.00;;;;;;4968460;28;20133;-80
2023/08/30 04:38:27;;;;;;;23.70;9.27;;;12.20;100.00;;;;;;4978431;28;20046;-80
2023/08/30 04:40:59;;;;;;;25.17;9.82;;;12.20;100.00;;;;;;4978893;28;20081;-80
2023/08/30 04:43:26;;;;;;;20.38;8.25;;;12.30;100.00;;;;;;5000033;28;20049;-80
2023/08/30 04:45:55;;;;;;;28.90;9.85;;;12.30;100.00;;;;;;5007734;28;20435;-80
2023/08/30 04:48:24;;;;;;;25.42;8.50;;;12.30;100.00;;;;;;4981585;28;20699;-80
2023/08/30 04:51:05;;;;;;;24.27;8.82;;;12.40;100.00;;;;;;4988154;28;20046;-79
2023/08/30 04:53:42;;;;;;;20.65;9.40;;;12.40;100.00;;;;;;4982646;28;20189;-79
2023/08/30 04:56:14;;;;;;;26.98;9.80;;;12.50;100.00;;;;;;4976486;28;20113;-79
2023/08/30 04:58:41;;;;;;;23.25;8.88;;;12.60;100.00;;;;;;5006407;28;20468;-79
2023/08/30 05:01:09;;;;;;;22.85;9.10;;;12.70;100.00;;;;;;4996196;28;20728;-77
2023/08/30 05:03:37;;;;;;;24.65;8.80;;;12.70;100.00;;;;;;4992046;28;20669;-77
2023/08/30 05:06:05;;;;;;;20.45;8.20;;;12.80;100.00;;;;;;4996512;28;20481;-75
2023/08/30 05:08:32;;;;;;;24.30;8.90;;;12.90;100.00;;;;;;4999770;28;20447;-75
2023/08/30 05:10:59;;;;;;;19.63;8.60;;;12.90;100.00;;;;;;4989024;28;20089;-75
2023/08/30 05:13:26;;;;;;;21.83;9.02;;;13.10;100.00;;;;;;4989159;28;20050;-75
2023/08/30 05:15:52;;;;;;;19.98;9.65;;;13.10;100.00;;;;;;4998950;28;20676;-74
2023/08/30 05:18:19;;;;;;;19.00;8.93;;;13.20;100.00;;;;;;4997999;28;20060;-73
2023/08/30 05:20:46;;;;;;;17.52;8.02;;;13.20;100.00;;;;;;4987701;28;20053;-74
2023/08/30 05:23:13;;;;;;;19.30;8.55;;;13.30;100.00;;;;;;4973104;28;20473;-74
2023/08/30 05:25:40;;;;;;;19.55;8.20;;;13.30;100.00;;;;;;4987817;28;20050;-75
2023/08/30 05:28:07;;;;;;;20.70;8.65;;;13.40;100.00;;;;;;4990103;28;20128;-74
2023/08/30 05:30:34;;;;;;;24.30;8.68;;;13.50;100.00;;;;;;4989221;28;20128;-77
2023/08/30 05:33:02;;;;;;;13.77;8.05;;;13.50;100.00;;;;;;4969827;28;20047;-73
2023/08/30 05:35:30;;;;;;;18.85;7.93;;;13.50;100.00;;;;;;4993449;28;20049;-73
2023/08/30 05:37:57;;;;;;;19.10;8.13;;;13.50;100.00;;;;;;4969551;28;20169;-73
2023/08/30 05:40:24;;;;;;;24.80;8.63;;;13.60;100.00;;;;;;4989852;28;20086;-72
2023/08/30 05:42:51;;;;;;;23.23;8.27;;;13.60;100.00;;;;;;4967317;28;20061;-72
2023/08/30 05:45:20;;;;;;;21.55;7.85;;;13.60;100.00;;;;;;4968197;28;20786;-72
2023/08/30 05:47:48;;;;;;;19.58;7.78;;;13.60;100.00;;;;;;4971952;28;20057;-73
2023/08/30 05:50:15;;;;;;;15.63;7.20;;;13.60;100.00;;;;;;4973321;28;20064;-72
2023/08/30 05:52:44;;;;;;;33.47;8.30;;;13.60;100.00;;;;;;4989804;28;20113;-72
2023/08/30 05:55:11;;;;;;;28.88;7.63;;;13.60;100.00;;;;;;4988962;28;20800;-73
2023/08/30 05:57:38;;;;;;;23.00;6.82;;;13.70;100.00;;;;;;4991889;28;20054;-73
2023/08/30 06:00:05;;;;;;;27.85;7.47;;;13.70;100.00;;;;;;4973448;28;20053;-72
2023/08/30 06:02:32;;;;;;;29.13;7.70;;;13.70;100.00;;;;;;4989925;28;20052;-72
2023/08/30 06:04:59;;;;;;;20.55;6.75;;;13.80;100.00;;;;;;4987545;28;20058;-72
2023/08/30 06:07:26;;;;;;;19.15;7.28;;;13.80;100.00;;;;;;4996209;28;20775;-72
2023/08/30 06:09:53;;;;;;;22.92;7.57;;;13.90;100.00;;;;;;4994833;28;20736;-72
2023/08/30 06:12:25;;;;;;;14.95;6.30;;;14.00;100.00;;;;;;4979448;28;20550;-71
2023/08/30 06:14:52;;;;;;;19.33;6.28;;;14.00;100.00;;;;;;4975447;28;21774;-72
2023/08/30 06:17:19;;;;;;;20.92;6.95;;;14.10;100.00;;;;;;4989652;28;20061;-72
2023/08/30 06:19:47;;;;;;;22.95;6.60;;;14.20;99.80;;;;;;4988146;28;20050;-72
2023/08/30 06:22:14;;;;;;;17.05;6.50;;;14.30;99.20;;;;;;4990360;28;20042;-72
2023/08/30 06:24:41;;;;;;;15.70;5.82;;;14.40;99.40;;;;;;4993855;28;20082;-77
2023/08/30 06:27:08;;;;;;;14.40;6.35;;;14.60;99.20;;;;;;4976300;28;20093;-78
2023/08/30 06:29:35;;;;;;;11.60;6.03;;;14.70;98.40;;;;;;4995818;28;20125;-78
2023/08/30 06:32:02;;;;;;;14.13;6.68;;;14.80;97.80;;;;;;4996673;28;20113;-78
2023/08/30 06:34:29;;;;;;;15.32;6.43;;;14.90;97.80;;;;;;5001222;28;20049;-79
2023/08/30 06:36:56;;;;;;;11.40;5.38;;;15.00;97.80;;;;;;4999238;28;20042;-78
2023/08/30 06:39:23;;;;;;;11.77;5.55;;;15.20;97.50;;;;;;4979302;28;20145;-77
2023/08/30 06:41:50;;;;;;;14.02;6.28;;;15.30;96.40;;;;;;4999753;28;20054;-78
2023/08/30 06:44:17;;;;;;;11.27;5.60;;;15.90;97.30;;;;;;5003024;28;20053;-77
2023/08/30 06:46:45;;;;;;;8.85;5.05;;;17.50;92.00;;;;;;4995939;28;20053;-78
2023/08/30 06:49:14;;;;;;;13.48;5.25;;;19.00;86.30;;;;;;4976109;28;20050;-78
2023/08/30 06:51:43;;;;;;;7.80;4.28;;;20.30;79.70;;;;;;4976208;28;20113;-79
2023/08/30 06:54:13;;;;;;;8.80;3.95;;;21.20;75.90;;;;;;4974941;28;20152;-78
2023/08/30 06:56:56;;;;;;;8.32;3.97;;;21.80;74.40;;;;;;4985243;28;20482;-79
2023/08/30 06:59:23;;;;;;;10.95;3.63;;;22.30;73.40;;;;;;4976170;28;20834;-79
2023/08/30 07:01:49;;;;;;;8.40;3.28;;;22.40;70.40;;;;;;4980267;28;20089;-78
2023/08/30 07:04:16;;;;;;;7.78;3.30;;;22.30;70.20;;;;;;4994053;28;20112;-79
2023/08/30 07:06:44;;;;;;;7.95;3.13;;;21.70;70.30;;;;;;4992823;28;20054;-78
2023/08/30 07:09:11;;;;;;;11.68;3.10;;;21.80;72.80;;;;;;4994276;28;20046;-79
2023/08/30 07:11:39;;;;;;;4.57;2.80;;;21.90;73.90;;;;;;4997715;28;20539;-79
2023/08/30 07:14:06;;;;;;;6.03;3.08;;;22.00;71.10;;;;;;5001214;28;20050;-78
2023/08/30 07:16:35;;;;;;;11.23;3.40;;;22.00;71.30;;;;;;4979855;28;20788;-78
2023/08/30 07:19:06;;;;;;;10.25;2.88;;;21.60;70.70;;;;;;4997006;28;20149;-79
2023/08/30 07:21:37;;;;;;;5.80;2.55;;;21.20;71.40;;;;;;4977578;28;20137;-78
2023/08/30 07:24:06;;;;;;;10.05;3.17;;;20.90;72.60;;;;;;4980664;28;20050;-79
2023/08/30 07:26:35;;;;;;;4.72;2.80;;;20.50;74.60;;;;;;4985684;28;20050;-79
2023/08/30 07:29:06;;;;;;;6.97;3.20;;;20.30;74.60;;;;;;4999505;28;20077;-79
2023/08/30 07:31:38;;;;;;;5.03;3.10;;;20.00;75.90;;;;;;4986309;28;20053;-80
2023/08/30 07:34:07;;;;;;;17.83;3.35;;;19.90;75.30;;;;;;4986796;28;20446;-79
2023/08/30 07:36:35;;;;;;;8.30;2.70;;;19.80;75.60;;;;;;5006343;28;20502;-78
2023/08/30 07:39:14;;;;;;;6.57;2.90;;;19.70;76.30;;;;;;4987314;28;20066;-79
2023/08/30 07:41:41;;;;;;;4.47;2.42;;;19.40;76.30;;;;;;4998742;23;20162;-72
2023/08/30 07:44:08;;;;;;;7.90;3.47;;;19.50;77.60;;;;;;4920919;29;20545;-72
2023/08/30 07:46:35;;;;;;;8.20;2.50;;;19.50;76.60;;;;;;4920494;29;20054;-72
2023/08/30 07:49:02;;;;;;;5.57;2.78;;;19.60;76.70;;;;;;4931560;28;20223;-72
2023/08/30 07:51:29;;;;;;;5.47;2.60;;;19.70;75.70;;;;;;4918439;29;20067;-72
2023/08/30 07:53:56;;;;;;;3.58;2.28;;;19.80;76.30;;;;;;4927925;29;20056;-72
2023/08/30 07:56:23;;;;;;;8.65;3.10;;;19.90;77.00;;;;;;4941415;28;20508;-73
2023/08/30 07:58:50;;;;;;;16.90;3.15;;;19.90;74.50;;;;;;4925398;29;20167;-73
2023/08/30 08:01:17;;;;;;;8.10;2.50;;;20.00;76.60;;;;;;4937014;28;20135;-72
2023/08/30 08:03:56;;;;;;;9.25;2.25;;;20.10;75.30;;;;;;4925671;29;20076;-73
2023/08/30 08:06:33;;;;;;;6.43;3.05;;;20.10;76.30;;;;;;4922155;29;20048;-78
2023/08/30 08:09:01;;;;;;;6.95;2.60;;;20.10;75.90;;;;;;4928046;29;20059;-80
2023/08/30 08:11:28;;;;;;;4.55;2.10;;;20.10;73.80;;;;;;4938478;28;20048;-79
2023/08/30 08:13:55;;;;;;;6.65;1.90;;;19.90;72.70;;;;;;4916829;29;20059;-78
2023/08/30 08:16:22;;;;;;;8.02;2.60;;;19.90;73.40;;;;;;4924342;29;20058;-78
2023/08/30 08:18:50;;;;;;;3.22;1.90;;;19.90;74.90;;;;;;4920687;29;20130;-79
2023/08/30 08:21:18;;;;;;;7.90;1.88;;;20.00;75.40;;;;;;4927113;29;20111;-79
2023/08/30 08:23:49;;;;;;;4.60;2.10;;;20.00;75.30;;;;;;4926928;29;20039;-79
2023/08/30 08:26:18;;;;;;;5.70;2.08;;;20.10;75.40;;;;;;4943135;28;20046;-79
2023/08/30 08:28:46;;;;;;;9.23;2.13;;;20.10;75.70;;;;;;4941218;28;20051;-78
2023/08/30 08:31:18;;;;;;;3.47;1.80;;;20.10;75.50;;;;;;4921517;29;20158;-79
2023/08/30 08:33:45;;;;;;;4.88;2.28;;;19.90;75.20;;;;;;4924806;29;20055;-72
2023/08/30 08:36:12;;;;;;;6.25;1.90;;;19.90;76.40;;;;;;4925656;29;20091;-73
2023/08/30 08:38:38;;;;;;;3.15;1.85;;;20.00;75.60;;;;;;4925492;29;20057;-73
2023/08/30 08:41:07;;;;;;;3.75;1.60;;;19.80;76.20;;;;;;4934840;28;20060;-73
2023/08/30 08:43:36;;;;;;;6.55;1.73;;;19.80;77.20;;;;;;4925521;29;20126;-72
2023/08/30 08:46:06;;;;;;;3.83;1.92;;;19.90;77.20;;;;;;4924961;29;20056;-73
2023/08/30 08:48:39;;;;;;;7.80;1.98;;;20.00;76.60;;;;;;4920844;29;20158;-73
2023/08/30 08:51:06;;;;;;;5.28;1.60;;;19.90;74.60;;;;;;4916913;29;20779;-73
2023/08/30 08:53:33;;;;;;;12.10;2.08;;;20.00;75.80;;;;;;4921016;29;20063;-73
2023/08/30 08:56:01;;;;;;;7.18;2.08;;;20.10;75.00;;;;;;4921669;29;20063;-73
2023/08/30 08:58:28;;;;;;;2.45;1.67;;;20.10;73.80;;;;;;4925533;29;20138;-73
2023/08/30 09:00:56;;;;;;;5.60;1.85;;;20.00;74.60;;;;;;4925327;29;20048;-73
2023/08/30 09:03:23;;;;;;;5.90;1.60;;;20.00;73.10;;;;;;4924650;29;20206;-73
2023/08/30 09:05:51;;;;;;;2.80;1.85;;;20.00;73.30;;;;;;4926515;29;20047;-72
2023/08/30 09:08:21;;;;;;;9.98;1.70;;;20.00;73.50;;;;;;4926472;29;20075;-73
2023/08/30 09:10:50;;;;;;;3.97;1.85;;;20.20;74.10;;;;;;4925215;29;20051;-73
2023/08/30 09:13:18;;;;;;;3.72;1.73;;;20.20;72.20;;;;;;4938478;29;20087;-73
2023/08/30 09:15:44;;;;;;;4.45;1.80;;;20.10;72.60;;;;;;4917362;29;20059;-73
2023/08/30 09:18:16;;;;;;;8.93;2.05;;;20.10;73.80;;;;;;4925444;29;20063;-73
2023/08/30 09:20:43;;;;;;;12.68;2.33;;;20.10;73.80;;;;;;4925296;29;20056;-73
2023/08/30 09:23:18;;;;;;;4.72;1.92;;;20.10;74.30;;;;;;4925794;29;20051;-73
2023/08/30 09:25:45;;;;;;;3.90;1.70;;;20.10;73.40;;;;;;4923596;29;20126;-73
2023/08/30 09:28:12;;;;;;;3.67;2.38;;;20.00;72.40;;;;;;4922705;29;20627;-73
2023/08/30 09:30:39;;;;;;;8.70;2.13;;;20.00;72.80;;;;;;4922531;29;20481;-73
2023/08/30 09:33:07;;;;;;;7.63;1.65;;;20.10;73.30;;;;;;4922449;29;20158;-73
2023/08/30 09:35:43;;;;;;;4.63;2.13;;;20.10;71.90;;;;;;4922573;29;20847;-73
2023/08/30 09:38:19;;;;;;;4.47;1.75;;;19.90;73.00;;;;;;4925780;29;20870;-73
2023/08/30 09:40:46;;;;;;;5.22;1.85;;;19.90;73.00;;;;;;4936634;28;20135;-73
2023/08/30 09:43:14;;;;;;;28.27;2.83;;;20.00;73.70;;;;;;4927409;29;20666;-73
2023/08/30 09:45:41;;;;;;;7.07;2.20;;;20.20;74.60;;;;;;4928867;29;20051;-73
2023/08/30 09:48:09;;;;;;;4.53;1.83;;;20.50;74.00;;;;;;4929053;29;20058;-73
2023/08/30 09:50:36;;;;;;;4.63;1.85;;;21.00;71.90;;;;;;4920333;29;20044;-73
2023/08/30 09:53:11;;;;;;;9.73;1.98;;;21.90;73.50;;;;;;4924399;29;20070;-73
2023/08/30 09:55:39;;;;;;;2.03;1.40;;;23.40;69.30;;;;;;4928371;29;20044;-73
2023/08/30 09:58:06;;;;;;;3.15;1.55;;;24.10;62.00;;;;;;4941992;28;20051;-73
2023/08/30 10:00:36;;;;;;;2.25;1.77;;;23.80;61.70;;;;;;4927176;29;20047;-73
2023/08/30 10:03:04;;;;;;;13.65;3.70;;;23.60;62.50;;;;;;4927945;29;20147;-73
2023/08/30 10:05:36;;;;;;;8.45;1.85;;;23.30;64.00;;;;;;4920457;29;20741;-73
2023/08/30 10:08:06;;;;;;;2.28;1.60;;;23.80;66.40;;;;;;4925654;29;20071;-73
2023/08/30 10:10:35;;;;;;;3.47;1.50;;;24.70;62.90;;;;;;4942168;28;20060;-73
2023/08/30 10:13:03;;;;;;;6.97;2.00;;;25.60;61.00;;;;;;4927076;29;20084;-73
2023/08/30 10:15:43;;;;;;;9.45;1.83;;;26.30;59.70;;;;;;4935974;28;20044;-73
2023/08/30 10:18:14;;;;;;;5.00;1.30;;;26.90;55.70;;;;;;4914990;29;20055;-73
2023/08/30 10:20:41;;;;;;;3.22;1.85;;;26.60;58.30;;;;;;4922177;29;20196;-73
2023/08/30 10:23:08;;;;;;;5.45;1.52;;;26.00;58.10;;;;;;4921331;29;20672;-73
2023/08/30 10:25:37;;;;;;;2.55;1.58;;;26.10;58.20;;;;;;4919825;29;20052;-73
2023/08/30 10:28:05;;;;;;;5.97;1.45;;;26.10;59.10;;;;;;4921189;29;20048;-73
2023/08/30 10:34:24;;;;;;;4.05;1.40;;;26.30;57.30;;;;;;4877277;29;20677;-73
2023/08/30 10:37:01;;;;;;;4.82;1.45;;;26.00;58.00;;;;;;4921072;29;20071;-73
2023/08/30 10:39:38;;;;;;;7.60;1.58;;;25.80;57.80;;;;;;4919148;29;20729;-73
2023/08/30 10:42:15;;;;;;;7.13;2.35;;;25.70;57.50;;;;;;4930530;29;20138;-73
2023/08/30 10:44:50;;;;;;;4.03;1.77;;;25.50;57.40;;;;;;4918019;29;20048;-73
2023/08/30 10:47:38;;;;;;;2.42;1.33;;;25.30;59.10;;;;;;4921724;29;20078;-73
2023/08/30 10:50:07;;;;;;;2.30;1.17;;;25.10;59.90;;;;;;4921258;29;20187;-73
2023/08/30 10:55:05;;;;;;;1.65;1.10;;;25.50;61.00;;;;;;4943119;28;20055;-80
2023/08/30 10:57:33;;;;;;;2.35;1.13;;;26.30;59.40;;;;;;4950242;28;20113;-80
2023/08/30 11:00:13;;;;;;;2.92;1.33;;;27.30;57.40;;;;;;4933285;28;20483;-80
2023/08/30 11:02:45;;;;;;;1.88;1.15;;;27.80;55.50;;;;;;4955308;28;20046;-80
2023/08/30 11:05:12;;;;;;;1.38;1.10;;;28.40;52.90;;;;;;4949115;28;20130;-80
2023/08/30 11:07:41;;;;;;;2.00;1.23;;;28.70;51.30;;;;;;4929798;29;20047;-80
2023/08/30 11:10:09;;;;;;;5.63;1.30;;;28.70;49.30;;;;;;4930995;29;20050;-81
2023/08/30 11:12:36;;;;;;;2.80;1.33;;;28.20;50.60;;;;;;4955212;28;20134;-80
2023/08/30 11:15:04;;;;;;;2.42;0.98;;;27.80;51.70;;;;;;4932593;28;20059;-80
2023/08/30 11:17:31;;;;;;;3.30;1.20;;;27.70;51.50;;;;;;4952726;28;20646;-79
2023/08/30 11:20:06;;;;;;;1.83;1.20;;;27.20;50.70;;;;;;4930549;28;20053;-80
2023/08/30 11:22:37;;;;;;;2.67;1.02;;;26.40;50.80;;;;;;4951183;28;20066;-79
2023/08/30 11:25:04;;;;;;;3.65;1.38;;;25.80;52.10;;;;;;4953845;28;20050;-79
2023/08/30 11:27:31;;;;;;;2.50;1.05;;;24.90;53.40;;;;;;4950099;28;20050;-79
2023/08/30 11:30:05;;;;;;;8.63;2.05;;;24.60;54.00;;;;;;4945737;28;20816;-79
2023/08/30 11:32:34;;;;;;;3.30;1.67;;;24.20;55.60;;;;;;4933826;29;20047;-79
2023/08/30 11:35:19;;;;;;;3.08;1.20;;;23.60;56.70;;;;;;4948461;28;20059;-79
2023/08/30 11:37:49;;;;;;;6.07;1.48;;;23.30;58.70;;;;;;4931933;28;20051;-72
2023/08/30 11:40:17;;;;;;;1.40;1.15;;;23.00;58.50;;;;;;4943400;28;20086;-72
2023/08/30 11:42:44;;;;;;;6.13;1.45;;;22.80;59.40;;;;;;4928619;28;20799;-72
2023/08/30 11:45:14;;;;;;;7.47;1.30;;;22.70;59.30;;;;;;4944059;29;20074;-72
2023/08/30 11:47:41;;;;;;;3.17;1.50;;;22.50;59.40;;;;;;4930344;28;20064;-72
2023/08/30 11:50:12;;;;;;;4.55;1.35;;;22.30;60.30;;;;;;4950473;28;20059;-72
2023/08/30 11:52:39;;;;;;;1.83;1.20;;;22.10;60.10;;;;;;4937657;28;20062;-72
2023/08/30 11:55:07;;;;;;;7.07;1.17;;;22.00;62.20;;;;;;4954964;28;20061;-72
2023/08/30 11:57:35;;;;;;;3.00;1.23;;;22.00;62.40;;;;;;4959438;28;20454;-72
2023/08/30 12:00:12;;;;;;;7.10;1.52;;;22.10;63.90;;;;;;4931108;28;20206;-72
2023/08/30 12:02:40;;;;;;;6.05;1.20;;;22.10;61.50;;;;;;4935214;29;20061;-72
2023/08/30 12:05:11;;;;;;;5.55;1.60;;;22.10;62.40;;;;;;4927030;28;20043;-73
2023/08/30 12:07:40;;;;;;;7.47;1.40;;;22.20;61.80;;;;;;4947347;28;20053;-72
2023/08/30 12:10:08;;;;;;;3.08;1.40;;;22.20;61.50;;;;;;4931314;28;20142;-72
2023/08/30 12:12:38;;;;;;;4.47;1.30;;;22.20;62.80;;;;;;4932265;28;20047;-73
2023/08/30 12:15:10;;;;;;;6.65;1.42;;;22.20;60.70;;;;;;4944131;28;20055;-72
2023/08/30 12:17:37;;;;;;;4.38;1.33;;;22.10;62.30;;;;;;4929060;29;20696;-73
2023/08/30 12:20:04;;;;;;;5.00;2.10;;;22.00;61.20;;;;;;4920909;28;20059;-73
2023/08/30 12:22:38;;;;;;;5.88;1.23;;;22.00;63.10;;;;;;4951221;28;20670;-72
2023/08/30 12:25:26;;;;;;;4.55;1.20;;;22.00;61.80;;;;;;4948580;28;20149;-73
2023/08/30 12:27:54;;;;;;;5.68;1.67;;;22.00;62.90;;;;;;4937801;28;20053;-73
2023/08/30 12:30:20;;;;;;;3.15;1.35;;;22.00;62.60;;;;;;4956901;28;20047;-73
2023/08/30 12:32:48;;;;;;;2.72;1.58;;;22.00;63.00;;;;;;4943379;28;20058;-72
2023/08/30 12:35:15;;;;;;;5.40;1.30;;;22.30;62.40;;;;;;4945768;28;20130;-72
2023/08/30 12:37:42;;;;;;;2.88;1.50;;;22.40;62.40;;;;;;4924476;28;20711;-72
2023/08/30 12:40:09;;;;;;;2.83;1.38;;;22.60;62.40;;;;;;4945255;28;20062;-73
2023/08/30 12:42:37;;;;;;;4.15;1.45;;;23.30;63.50;;;;;;4951826;28;20057;-73
2023/08/30 12:45:05;;;;;;;2.13;1.48;;;25.00;60.60;;;;;;4932516;28;20499;-73
2023/08/30 12:47:31;;;;;;;2.10;1.15;;;26.10;53.30;;;;;;4934168;29;20050;-73
2023/08/30 12:50:28;;;;;;;2.15;1.13;;;26.80;52.80;;;;;;4949947;28;20051;-74
2023/08/30 12:52:55;;;;;;;1.30;1.05;;;26.10;52.60;;;;;;4932759;28;20050;-74
2023/08/30 12:55:22;;;;;;;1.58;1.15;;;26.40;53.00;;;;;;4925512;29;20524;-74